Time;durP1;ratioP1;P1;durP2;ratioP2;P2;SDS_P1;SDS_P2;PMS_P1;PMS_P2;Temp;Humidity;BMP_temperature;BMP_pressure;BME280_temperature;BME280_humidity;BME280_pressure;Samples;Min_cycle;Max_cycle;Signal;HPM_P1;HPM_P2
2020/12/01 00:01:55;;;;;;;15.52;13.32;;;;;;;;;;5062111;28;20282;-82
2020/12/01 00:04:21;;;;;;;17.35;14.20;;;;;;;;;;5045000;28;20202;-79
2020/12/01 00:06:48;;;;;;;18.13;15.18;;;;;;;;;;5031958;28;20286;-78
2020/12/01 00:09:14;;;;;;;21.77;15.55;;;;;;;;;;5048347;28;20254;-81
2020/12/01 00:11:41;;;;;;;14.90;13.40;;;;;;;;;;5067402;28;20703;-81
2020/12/01 00:14:07;;;;;;;20.00;17.67;;;;;;;;;;5044914;28;20546;-80
2020/12/01 00:16:33;;;;;;;16.90;14.90;;;;;;;;;;5025055;28;20170;-81
2020/12/01 00:18:59;;;;;;;18.08;15.20;;;;;;;;;;5059186;28;20200;-82
2020/12/01 00:21:26;;;;;;;18.50;16.60;;;;;;;;;;5041502;28;20608;-81
2020/12/01 00:23:52;;;;;;;17.65;15.18;;;;;;;;;;5059638;28;20190;-82
2020/12/01 00:26:19;;;;;;;15.63;14.18;;;;;;;;;;5060809;28;20167;-82
2020/12/01 00:28:46;;;;;;;17.92;16.23;;;;;;;;;;5044287;28;20191;-81
2020/12/01 00:31:12;;;;;;;20.20;16.00;;;;;;;;;;5058883;28;20165;-80
2020/12/01 00:33:38;;;;;;;17.73;14.60;;;;;;;;;;5059179;28;20214;-83
2020/12/01 00:36:05;;;;;;;17.67;15.57;;;;;;;;;;5059282;28;20162;-81
2020/12/01 00:38:32;;;;;;;18.98;17.08;;;;;;;;;;5040345;28;20217;-80
2020/12/01 00:40:58;;;;;;;21.13;15.30;;;;;;;;;;5041618;28;20186;-81
2020/12/01 00:43:24;;;;;;;19.15;16.80;;;;;;;;;;5043425;28;20177;-79
2020/12/01 00:45:51;;;;;;;21.08;16.55;;;;;;;;;;5064115;28;20174;-78
2020/12/01 00:48:17;;;;;;;17.58;15.73;;;;;;;;;;5047317;28;20190;-82
2020/12/01 00:50:44;;;;;;;18.35;16.55;;;;;;;;;;5062969;28;20166;-82
2020/12/01 00:53:11;;;;;;;16.40;14.70;;;;;;;;;;5041783;28;20602;-81
2020/12/01 00:55:38;;;;;;;21.27;14.60;;;;;;;;;;5025917;28;20174;-82
2020/12/01 00:58:05;;;;;;;17.08;15.07;;;;;;;;;;5026057;28;20190;-81
2020/12/01 01:00:37;;;;;;;16.90;15.10;;;;;;;;;;5026439;28;20163;-82
2020/12/01 01:03:13;;;;;;;16.55;14.80;;;;;;;;;;5029349;28;20151;-79
2020/12/01 01:05:39;;;;;;;20.42;15.43;;;;;;;;;;5046885;28;20253;-79
2020/12/01 01:08:05;;;;;;;19.00;16.70;;;;;;;;;;5053790;28;20206;-82
2020/12/01 01:10:32;;;;;;;18.73;14.18;;;;;;;;;;5046341;28;20602;-82
2020/12/01 01:12:59;;;;;;;19.70;14.43;;;;;;;;;;5058732;28;20183;-82
2020/12/01 01:15:28;;;;;;;19.08;17.00;;;;;;;;;;5057808;28;20166;-81
2020/12/01 01:17:54;;;;;;;19.85;14.38;;;;;;;;;;5058718;28;20190;-82
2020/12/01 01:20:20;;;;;;;15.82;14.23;;;;;;;;;;5060197;28;20163;-82
2020/12/01 01:22:47;;;;;;;17.60;15.55;;;;;;;;;;5041542;28;20165;-82
2020/12/01 01:25:14;;;;;;;16.05;14.25;;;;;;;;;;5057939;28;20197;-81
2020/12/01 01:27:40;;;;;;;20.35;16.20;;;;;;;;;;5041010;28;20293;-82
2020/12/01 01:30:07;;;;;;;17.90;15.68;;;;;;;;;;5058518;28;20630;-80
2020/12/01 01:32:33;;;;;;;20.48;15.98;;;;;;;;;;5058885;28;20224;-81
2020/12/01 01:35:00;;;;;;;20.25;16.80;;;;;;;;;;5058859;28;20237;-81
2020/12/01 01:37:26;;;;;;;16.88;14.90;;;;;;;;;;5040961;28;20179;-79
2020/12/01 01:39:52;;;;;;;17.00;15.15;;;;;;;;;;5058215;28;20178;-81
2020/12/01 01:42:18;;;;;;;19.20;16.38;;;;;;;;;;5041696;28;20175;-82
2020/12/01 01:44:44;;;;;;;18.80;16.77;;;;;;;;;;5059126;28;20201;-80
2020/12/01 01:47:20;;;;;;;17.55;15.63;;;;;;;;;;5041652;28;20159;-82
2020/12/01 01:49:47;;;;;;;17.92;15.20;;;;;;;;;;5059738;28;20183;-81
2020/12/01 01:52:20;;;;;;;18.70;15.65;;;;;;;;;;5062678;28;20174;-81
2020/12/01 01:54:48;;;;;;;18.40;16.33;;;;;;;;;;5072301;28;20181;-81
2020/12/01 01:57:15;;;;;;;17.85;16.00;;;;;;;;;;5051125;28;20198;-80
2020/12/01 01:59:42;;;;;;;18.95;15.90;;;;;;;;;;5050777;28;20201;-81
2020/12/01 02:02:08;;;;;;;22.17;16.88;;;;;;;;;;5063117;28;20179;-81
2020/12/01 02:04:34;;;;;;;20.75;16.73;;;;;;;;;;5061588;28;20190;-79
2020/12/01 02:07:05;;;;;;;21.02;17.00;;;;;;;;;;5043315;28;20228;-80
2020/12/01 02:09:44;;;;;;;16.23;14.60;;;;;;;;;;5043393;28;20197;-81
2020/12/01 02:12:13;;;;;;;19.15;16.92;;;;;;;;;;5043158;28;20158;-81
2020/12/01 02:14:43;;;;;;;17.38;15.20;;;;;;;;;;5043873;28;20175;-80
2020/12/01 02:17:15;;;;;;;19.27;17.05;;;;;;;;;;5043874;28;20183;-82
2020/12/01 02:19:41;;;;;;;21.73;17.33;;;;;;;;;;5060429;28;20159;-81
2020/12/01 02:22:11;;;;;;;20.30;16.60;;;;;;;;;;5043935;28;20530;-81
2020/12/01 02:24:37;;;;;;;20.60;17.23;;;;;;;;;;5061468;28;20179;-81
2020/12/01 02:27:04;;;;;;;20.75;17.95;;;;;;;;;;5061013;28;20692;-80
2020/12/01 02:29:32;;;;;;;21.40;16.23;;;;;;;;;;5061791;28;20740;-81
2020/12/01 02:31:58;;;;;;;20.42;17.45;;;;;;;;;;5042863;28;20218;-81
2020/12/01 02:34:31;;;;;;;20.60;17.73;;;;;;;;;;5061484;28;20185;-81
2020/12/01 02:36:58;;;;;;;19.73;17.17;;;;;;;;;;5060729;28;20184;-82
2020/12/01 02:39:27;;;;;;;22.35;19.83;;;;;;;;;;5042486;28;20194;-82
2020/12/01 02:41:54;;;;;;;25.45;20.52;;;;;;;;;;5061498;28;20514;-79
2020/12/01 02:44:20;;;;;;;20.10;18.00;;;;;;;;;;5061088;28;20183;-81
2020/12/01 02:46:46;;;;;;;19.00;17.00;;;;;;;;;;5061597;28;20234;-82
2020/12/01 02:49:13;;;;;;;23.75;19.52;;;;;;;;;;5043817;28;20274;-80
2020/12/01 02:51:39;;;;;;;20.83;18.67;;;;;;;;;;5044418;28;20202;-79
2020/12/01 02:54:05;;;;;;;22.85;18.48;;;;;;;;;;5062999;28;20166;-82
2020/12/01 02:56:31;;;;;;;21.02;18.45;;;;;;;;;;5029180;28;20193;-81
2020/12/01 02:58:57;;;;;;;21.73;19.52;;;;;;;;;;5044473;28;20194;-80
2020/12/01 03:01:23;;;;;;;25.70;20.17;;;;;;;;;;5045277;28;20159;-81
2020/12/01 03:03:50;;;;;;;23.38;20.98;;;;;;;;;;5044837;28;20205;-81
2020/12/01 03:06:19;;;;;;;22.85;20.45;;;;;;;;;;5061787;28;20158;-82
2020/12/01 03:08:45;;;;;;;22.95;19.00;;;;;;;;;;5026919;28;20196;-81
2020/12/01 03:11:12;;;;;;;25.63;21.85;;;;;;;;;;5062653;28;20162;-80
2020/12/01 03:13:38;;;;;;;23.88;21.13;;;;;;;;;;5063272;28;20537;-81
2020/12/01 03:16:09;;;;;;;23.45;19.58;;;;;;;;;;5046725;28;20166;-81
2020/12/01 03:18:36;;;;;;;22.83;19.85;;;;;;;;;;5046329;28;20186;-80
2020/12/01 03:21:02;;;;;;;21.20;19.00;;;;;;;;;;5062918;28;20656;-82
2020/12/01 03:23:28;;;;;;;25.17;20.23;;;;;;;;;;5042897;28;20178;-80
2020/12/01 03:25:54;;;;;;;24.20;21.40;;;;;;;;;;5061122;28;20555;-78
2020/12/01 03:28:20;;;;;;;29.35;20.95;;;;;;;;;;5045986;28;20212;-79
2020/12/01 03:30:46;;;;;;;24.67;20.25;;;;;;;;;;5044702;28;20170;-80
2020/12/01 03:33:13;;;;;;;23.90;21.05;;;;;;;;;;5062112;28;20646;-81
2020/12/01 03:35:39;;;;;;;24.98;21.27;;;;;;;;;;5064407;28;20217;-81
2020/12/01 03:38:05;;;;;;;22.58;20.00;;;;;;;;;;5048326;28;20182;-82
2020/12/01 03:40:31;;;;;;;23.95;21.45;;;;;;;;;;5047791;28;20163;-81
2020/12/01 03:42:58;;;;;;;29.23;22.98;;;;;;;;;;5047198;28;20174;-80
2020/12/01 03:45:27;;;;;;;25.00;22.33;;;;;;;;;;5068618;28;20190;-79
2020/12/01 03:47:54;;;;;;;31.45;24.40;;;;;;;;;;5067956;28;20202;-79
2020/12/01 03:50:20;;;;;;;25.83;23.02;;;;;;;;;;5061799;28;20672;-80
2020/12/01 03:52:47;;;;;;;26.67;23.75;;;;;;;;;;5025885;28;20171;-80
2020/12/01 03:55:13;;;;;;;26.27;21.95;;;;;;;;;;5042296;28;20171;-81
2020/12/01 03:57:42;;;;;;;27.75;24.85;;;;;;;;;;5041568;28;20217;-82
2020/12/01 04:00:09;;;;;;;26.35;23.40;;;;;;;;;;5040977;28;20259;-82
2020/12/01 04:02:35;;;;;;;30.45;23.52;;;;;;;;;;5059944;28;20163;-82
2020/12/01 04:05:01;;;;;;;28.42;24.13;;;;;;;;;;5042749;28;20252;-79
2020/12/01 04:07:27;;;;;;;27.05;22.75;;;;;;;;;;5065726;28;20174;-78
2020/12/01 04:09:53;;;;;;;27.88;25.00;;;;;;;;;;5066708;28;20194;-81
2020/12/01 04:12:20;;;;;;;30.58;24.92;;;;;;;;;;5047927;28;20174;-79
2020/12/01 04:14:46;;;;;;;26.52;23.23;;;;;;;;;;5046861;28;20240;-79
2020/12/01 04:17:12;;;;;;;27.73;24.30;;;;;;;;;;5067807;28;20253;-81
2020/12/01 04:19:38;;;;;;;27.50;24.60;;;;;;;;;;5068101;28;20186;-78
2020/12/01 04:22:04;;;;;;;29.27;25.20;;;;;;;;;;5068333;28;20166;-78
2020/12/01 04:24:30;;;;;;;28.98;24.45;;;;;;;;;;5030237;28;20255;-81
2020/12/01 04:26:56;;;;;;;30.83;25.63;;;;;;;;;;5061125;28;20163;-82
2020/12/01 04:29:22;;;;;;;27.63;24.58;;;;;;;;;;5060630;28;20248;-79
2020/12/01 04:31:48;;;;;;;28.45;25.23;;;;;;;;;;5043042;28;20205;-79
2020/12/01 04:34:15;;;;;;;42.90;28.48;;;;;;;;;;5060174;28;20206;-80
2020/12/01 04:36:41;;;;;;;30.20;25.67;;;;;;;;;;5024776;28;20183;-82
2020/12/01 04:39:07;;;;;;;29.15;25.55;;;;;;;;;;5058771;28;20186;-79
2020/12/01 04:41:33;;;;;;;34.28;28.65;;;;;;;;;;5059849;28;20169;-79
2020/12/01 04:44:02;;;;;;;32.35;26.42;;;;;;;;;;5058616;28;20197;-81
2020/12/01 04:46:32;;;;;;;31.55;25.98;;;;;;;;;;5041467;28;20170;-79
2020/12/01 04:49:21;;;;;;;31.35;27.48;;;;;;;;;;5041533;28;20258;-81
2020/12/01 04:51:50;;;;;;;31.27;26.08;;;;;;;;;;5047029;28;20637;-80
2020/12/01 04:54:32;;;;;;;32.70;27.52;;;;;;;;;;5026873;28;20155;-81
2020/12/01 04:56:58;;;;;;;34.58;27.35;;;;;;;;;;5060529;28;20174;-82
2020/12/01 04:59:43;;;;;;;35.17;28.15;;;;;;;;;;5059789;28;20186;-80
2020/12/01 05:02:09;;;;;;;33.85;25.50;;;;;;;;;;5058845;28;20172;-81
2020/12/01 05:04:42;;;;;;;33.08;26.17;;;;;;;;;;5057539;28;20224;-81
2020/12/01 05:07:32;;;;;;;36.60;29.42;;;;;;;;;;5022661;28;20210;-80
2020/12/01 05:09:59;;;;;;;33.45;28.38;;;;;;;;;;5039177;28;20239;-81
2020/12/01 05:12:28;;;;;;;41.40;29.98;;;;;;;;;;5023619;28;20167;-81
2020/12/01 05:14:57;;;;;;;34.13;28.58;;;;;;;;;;5039352;28;20266;-80
2020/12/01 05:17:29;;;;;;;32.28;28.38;;;;;;;;;;5057867;28;20257;-82
2020/12/01 05:19:55;;;;;;;32.30;26.05;;;;;;;;;;5017935;23;20215;-75
2020/12/01 05:22:22;;;;;;;34.42;29.00;;;;;;;;;;4996479;28;20214;-74
2020/12/01 05:24:50;;;;;;;36.35;28.20;;;;;;;;;;4996483;28;20200;-75
2020/12/01 05:27:21;;;;;;;38.63;29.55;;;;;;;;;;5022515;28;20282;-74
2020/12/01 05:29:52;;;;;;;33.50;28.80;;;;;;;;;;5019772;28;20627;-75
2020/12/01 05:32:29;;;;;;;36.22;27.13;;;;;;;;;;5038316;28;20518;-76
2020/12/01 05:35:05;;;;;;;35.05;29.38;;;;;;;;;;5038800;28;20198;-75
2020/12/01 05:37:32;;;;;;;33.90;29.20;;;;;;;;;;5037557;28;20245;-74
2020/12/01 05:40:03;;;;;;;37.13;27.95;;;;;;;;;;5019928;28;20183;-75
2020/12/01 05:42:30;;;;;;;31.70;27.15;;;;;;;;;;5037627;28;20650;-77
2020/12/01 05:44:57;;;;;;;35.35;29.38;;;;;;;;;;5019733;28;20230;-76
2020/12/01 05:47:31;;;;;;;40.22;29.92;;;;;;;;;;5037717;28;20191;-75
2020/12/01 05:50:12;;;;;;;34.95;25.77;;;;;;;;;;5019358;28;20176;-75
2020/12/01 05:52:47;;;;;;;33.92;27.95;;;;;;;;;;5037374;28;20158;-76
2020/12/01 05:55:17;;;;;;;33.55;30.05;;;;;;;;;;5002744;28;20179;-75
2020/12/01 05:57:44;;;;;;;41.70;31.10;;;;;;;;;;5037041;28;20532;-76
2020/12/01 06:00:10;;;;;;;38.45;29.98;;;;;;;;;;5019184;28;20542;-75
2020/12/01 06:02:42;;;;;;;35.03;31.02;;;;;;;;;;5037068;28;20191;-75
2020/12/01 06:05:09;;;;;;;37.60;28.10;;;;;;;;;;5036553;28;20555;-77
2020/12/01 06:07:36;;;;;;;39.00;27.63;;;;;;;;;;5018703;28;20183;-75
2020/12/01 06:10:08;;;;;;;34.88;29.55;;;;;;;;;;5036884;28;20567;-75
2020/12/01 06:12:43;;;;;;;34.90;27.83;;;;;;;;;;5036578;28;20224;-75
2020/12/01 06:15:12;;;;;;;31.88;27.63;;;;;;;;;;5018610;28;20518;-75
2020/12/01 06:17:57;;;;;;;49.13;32.17;;;;;;;;;;5036936;28;20270;-76
2020/12/01 06:20:29;;;;;;;38.40;29.52;;;;;;;;;;5036442;28;20186;-76
2020/12/01 06:23:11;;;;;;;37.53;29.85;;;;;;;;;;5036459;28;20167;-75
2020/12/01 06:25:55;;;;;;;44.58;32.45;;;;;;;;;;5036451;28;20191;-76
2020/12/01 06:28:30;;;;;;;44.17;33.75;;;;;;;;;;5018508;28;20282;-75
2020/12/01 06:31:00;;;;;;;37.40;30.27;;;;;;;;;;5036817;28;20734;-75
2020/12/01 06:33:45;;;;;;;43.78;32.92;;;;;;;;;;5019373;28;20163;-75
2020/12/01 06:36:30;;;;;;;39.15;32.33;;;;;;;;;;5036868;28;20167;-76
2020/12/01 06:38:56;;;;;;;41.33;33.20;;;;;;;;;;5036337;28;20285;-76
2020/12/01 06:41:24;;;;;;;40.45;30.20;;;;;;;;;;5002517;28;20164;-75
2020/12/01 06:43:52;;;;;;;40.65;33.30;;;;;;;;;;5018685;28;20208;-75
2020/12/01 06:46:39;;;;;;;40.50;31.67;;;;;;;;;;5018723;28;20167;-75
2020/12/01 06:49:07;;;;;;;51.78;30.98;;;;;;;;;;5019777;28;20185;-76
2020/12/01 06:51:33;;;;;;;46.28;34.65;;;;;;;;;;5036282;28;20159;-75
2020/12/01 06:54:06;;;;;;;48.85;31.90;;;;;;;;;;5002421;28;20183;-77
2020/12/01 06:56:33;;;;;;;43.10;31.55;;;;;;;;;;5036372;28;20168;-75
2020/12/01 06:59:05;;;;;;;43.28;33.40;;;;;;;;;;5036555;28;20183;-76
2020/12/01 07:01:32;;;;;;;43.60;33.42;;;;;;;;;;5036632;28;20156;-74
2020/12/01 07:04:00;;;;;;;41.95;32.33;;;;;;;;;;5036412;28;20643;-77
2020/12/01 07:06:26;;;;;;;35.03;31.23;;;;;;;;;;5036638;28;20170;-76
2020/12/01 07:09:09;;;;;;;40.60;28.98;;;;;;;;;;5043488;28;20187;-80
2020/12/01 07:11:39;;;;;;;40.05;33.05;;;;;;;;;;5013487;28;20171;-74
2020/12/01 07:14:21;;;;;;;45.03;31.17;;;;;;;;;;5019176;28;20154;-75
2020/12/01 07:16:48;;;;;;;37.28;29.17;;;;;;;;;;5018105;28;20167;-75
2020/12/01 07:19:17;;;;;;;36.42;29.75;;;;;;;;;;5017778;28;20175;-76
2020/12/01 07:22:02;;;;;;;49.25;34.33;;;;;;;;;;5018221;28;20259;-76
2020/12/01 07:24:37;;;;;;;42.25;33.92;;;;;;;;;;5035696;28;20227;-75
2020/12/01 07:27:26;;;;;;;38.33;31.08;;;;;;;;;;5017658;28;20229;-76
2020/12/01 07:30:00;;;;;;;40.00;30.17;;;;;;;;;;5035947;28;20293;-75
2020/12/01 07:32:31;;;;;;;38.78;31.40;;;;;;;;;;5001786;28;20659;-77
2020/12/01 07:35:06;;;;;;;35.72;27.90;;;;;;;;;;5017750;28;20195;-75
2020/12/01 07:37:38;;;;;;;40.03;29.63;;;;;;;;;;5018603;28;20225;-79
2020/12/01 07:40:07;;;;;;;39.85;29.38;;;;;;;;;;5018257;28;20263;-75
2020/12/01 07:42:35;;;;;;;36.28;31.15;;;;;;;;;;5019203;28;20278;-77
2020/12/01 07:45:03;;;;;;;37.88;29.10;;;;;;;;;;5002461;28;20536;-75
2020/12/01 07:47:29;;;;;;;36.78;29.45;;;;;;;;;;5002800;28;20304;-76
2020/12/01 07:50:01;;;;;;;42.05;30.80;;;;;;;;;;5036850;28;20502;-75
2020/12/01 07:52:38;;;;;;;37.17;29.58;;;;;;;;;;5019741;28;20163;-76
2020/12/01 07:55:06;;;;;;;37.38;29.70;;;;;;;;;;5019466;28;20175;-75
2020/12/01 07:57:32;;;;;;;36.97;29.38;;;;;;;;;;5019362;28;20187;-76
2020/12/01 07:59:59;;;;;;;32.13;28.60;;;;;;;;;;5038079;28;20168;-76
2020/12/01 08:02:27;;;;;;;39.28;30.48;;;;;;;;;;5036972;28;20314;-75
2020/12/01 08:05:06;;;;;;;37.22;29.15;;;;;;;;;;5020128;28;20568;-76
2020/12/01 08:07:32;;;;;;;38.80;31.02;;;;;;;;;;5038483;28;20191;-76
2020/12/01 08:10:17;;;;;;;37.65;29.67;;;;;;;;;;5036673;28;20274;-76
2020/12/01 08:12:46;;;;;;;32.70;27.73;;;;;;;;;;5036058;28;20155;-77
2020/12/01 08:15:16;;;;;;;40.45;28.13;;;;;;;;;;5036873;28;20270;-77
2020/12/01 08:17:44;;;;;;;35.38;26.58;;;;;;;;;;5036673;28;20237;-76
2020/12/01 08:20:14;;;;;;;36.08;28.90;;;;;;;;;;5020685;28;20191;-76
2020/12/01 08:22:42;;;;;;;58.90;41.10;;;;;;;;;;5004076;28;20179;-76
2020/12/01 08:25:13;;;;;;;37.97;29.70;;;;;;;;;;5036401;28;20190;-77
2020/12/01 08:27:50;;;;;;;41.50;30.10;;;;;;;;;;5036831;28;20175;-77
2020/12/01 08:30:37;;;;;;;33.92;27.70;;;;;;;;;;5018986;28;20163;-76
2020/12/01 08:33:11;;;;;;;34.13;28.33;;;;;;;;;;5022855;28;20183;-75
2020/12/01 08:35:47;;;;;;;34.65;26.77;;;;;;;;;;5019747;28;20600;-76
2020/12/01 08:38:41;;;;;;;31.90;26.77;;;;;;;;;;5036169;28;20273;-77
2020/12/01 08:41:17;;;;;;;32.22;25.63;;;;;;;;;;5036782;28;20193;-77
2020/12/01 08:43:50;;;;;;;30.10;24.92;;;;;;;;;;5035463;28;20226;-76
2020/12/01 08:46:23;;;;;;;32.75;26.20;;;;;;;;;;5036096;28;20285;-76
2020/12/01 08:48:53;;;;;;;33.72;24.63;;;;;;;;;;5018410;28;20237;-76
2020/12/01 08:51:23;;;;;;;30.20;26.02;;;;;;;;;;5019022;28;20275;-75
2020/12/01 08:53:52;;;;;;;30.35;26.05;;;;;;;;;;5036695;28;20175;-76
2020/12/01 08:56:24;;;;;;;35.50;24.30;;;;;;;;;;5037227;28;20233;-76
2020/12/01 08:58:52;;;;;;;32.45;26.45;;;;;;;;;;5019401;28;20198;-76
2020/12/01 09:01:19;;;;;;;31.98;24.83;;;;;;;;;;5039179;28;20231;-75
2020/12/01 09:03:54;;;;;;;34.75;25.10;;;;;;;;;;5022221;28;20634;-76
2020/12/01 09:06:28;;;;;;;31.40;24.35;;;;;;;;;;5039644;28;20607;-75
2020/12/01 09:08:59;;;;;;;30.60;26.98;;;;;;;;;;5039040;28;20230;-77
2020/12/01 09:12:26;;;;;;;31.48;24.60;;;;;;;;;;5022136;28;20227;-76
2020/12/01 09:18:40;;;;;;;27.77;24.33;;;;;;;;;;4943603;29;20201;-76
2020/12/01 09:23:18;;;;;;;26.67;23.40;;;;;;;;;;5013709;28;20265;-77
2020/12/01 09:25:46;;;;;;;27.83;22.65;;;;;;;;;;5022136;28;20205;-76
2020/12/01 09:28:17;;;;;;;24.92;22.23;;;;;;;;;;5021596;28;20187;-76
2020/12/01 09:30:43;;;;;;;30.30;26.40;;;;;;;;;;5023776;28;20576;-76
2020/12/01 09:33:12;;;;;;;38.70;24.98;;;;;;;;;;5041675;28;20402;-76
2020/12/01 09:35:39;;;;;;;38.20;30.63;;;;;;;;;;5020903;28;20662;-76
2020/12/01 09:38:05;;;;;;;31.67;23.52;;;;;;;;;;5038369;28;20606;-74
2020/12/01 09:40:33;;;;;;;28.20;25.27;;;;;;;;;;5005257;28;20194;-75
2020/12/01 09:43:10;;;;;;;29.85;24.13;;;;;;;;;;5021143;28;20203;-76
2020/12/01 09:45:38;;;;;;;27.98;23.58;;;;;;;;;;5039334;28;20183;-76
2020/12/01 09:48:08;;;;;;;30.20;25.20;;;;;;;;;;5021369;28;20187;-76
2020/12/01 09:50:36;;;;;;;30.10;23.73;;;;;;;;;;5039425;28;20148;-75
2020/12/01 09:55:49;;;;;;;29.00;23.88;;;;;;;;;;5039384;28;20206;-76
2020/12/01 10:17:26;;;;;;;30.52;26.95;;;;;;;;;;5039389;28;20164;-77
2020/12/01 10:35:44;;;;;;;33.53;24.88;;;;;;;;;;5038954;28;20159;-76
2020/12/01 10:38:10;;;;;;;37.92;27.83;;;;;;;;;;5020990;28;20202;-75
2020/12/01 10:40:39;;;;;;;27.95;23.08;;;;;;;;;;5039985;28;20172;-76
2020/12/01 10:43:07;;;;;;;28.67;24.00;;;;;;;;;;5037891;28;20655;-75
2020/12/01 10:45:34;;;;;;;32.92;27.05;;;;;;;;;;5020948;28;20493;-77
2020/12/01 10:48:00;;;;;;;26.90;22.38;;;;;;;;;;5038260;28;20253;-75
2020/12/01 10:50:29;;;;;;;28.80;24.00;;;;;;;;;;5019560;28;20171;-76
2020/12/01 10:52:55;;;;;;;26.73;23.33;;;;;;;;;;5019694;28;20418;-77
2020/12/01 10:55:24;;;;;;;27.02;24.05;;;;;;;;;;5019908;28;20282;-75
2020/12/01 10:57:52;;;;;;;26.67;23.25;;;;;;;;;;5003454;28;20207;-77
2020/12/01 11:00:20;;;;;;;23.92;21.52;;;;;;;;;;5038080;28;20488;-77
2020/12/01 11:02:47;;;;;;;29.43;22.93;;;;;;;;;;5037954;28;20259;-76
2020/12/01 11:05:16;;;;;;;28.77;25.75;;;;;;;;;;5003791;28;20469;-76
2020/12/01 11:07:43;;;;;;;24.43;21.90;;;;;;;;;;5019594;28;20187;-77
2020/12/01 11:10:09;;;;;;;33.10;23.53;;;;;;;;;;5038040;28;20417;-75
2020/12/01 11:12:36;;;;;;;30.33;26.75;;;;;;;;;;5020040;28;20406;-76
2020/12/01 11:15:03;;;;;;;28.77;25.73;;;;;;;;;;5019525;28;20179;-76
2020/12/01 11:17:30;;;;;;;28.05;23.92;;;;;;;;;;5037206;28;20432;-76
2020/12/01 11:19:57;;;;;;;30.60;23.90;;;;;;;;;;5019935;28;20206;-75
2020/12/01 11:22:24;;;;;;;30.40;22.97;;;;;;;;;;5037630;28;20402;-76
2020/12/01 11:24:51;;;;;;;26.53;22.90;;;;;;;;;;5020187;28;20456;-76
2020/12/01 11:27:17;;;;;;;33.57;23.67;;;;;;;;;;5020029;28;20836;-76
2020/12/01 11:29:43;;;;;;;25.98;22.75;;;;;;;;;;5037134;28;20418;-76
2020/12/01 11:32:10;;;;;;;28.83;23.00;;;;;;;;;;5019225;28;20642;-75
2020/12/01 11:34:36;;;;;;;27.77;23.57;;;;;;;;;;5019862;28;20421;-76
2020/12/01 11:37:03;;;;;;;28.30;23.37;;;;;;;;;;5019419;28;20438;-76
2020/12/01 11:39:29;;;;;;;28.53;22.73;;;;;;;;;;5019617;28;20771;-75
2020/12/01 11:41:56;;;;;;;28.17;23.27;;;;;;;;;;5003138;28;20417;-76
2020/12/01 11:44:22;;;;;;;25.80;23.10;;;;;;;;;;5019304;28;20469;-77
2020/12/01 11:46:49;;;;;;;31.70;27.07;;;;;;;;;;5037411;28;20410;-77
2020/12/01 11:49:16;;;;;;;29.83;21.80;;;;;;;;;;5037098;28;20482;-76
2020/12/01 11:51:42;;;;;;;31.80;28.03;;;;;;;;;;5038198;28;20393;-76
2020/12/01 11:54:09;;;;;;;27.97;22.50;;;;;;;;;;5019332;28;20410;-76
2020/12/01 11:56:36;;;;;;;29.37;26.23;;;;;;;;;;5037588;28;20494;-76
2020/12/01 11:59:02;;;;;;;25.97;22.17;;;;;;;;;;5019138;28;20485;-75
2020/12/01 12:01:29;;;;;;;25.50;21.40;;;;;;;;;;5036591;28;20749;-76
2020/12/01 12:03:56;;;;;;;23.23;20.60;;;;;;;;;;5018870;28;20449;-79
2020/12/01 12:06:22;;;;;;;22.35;19.30;;;;;;;;;;5037058;28;20379;-76
2020/12/01 12:08:49;;;;;;;24.57;21.93;;;;;;;;;;5036186;28;20183;-76
2020/12/01 12:11:15;;;;;;;23.07;20.57;;;;;;;;;;5018429;28;20413;-76
2020/12/01 12:13:46;;;;;;;31.37;23.83;;;;;;;;;;5019316;28;20406;-76
2020/12/01 12:16:14;;;;;;;26.30;22.57;;;;;;;;;;5038586;28;20390;-76
2020/12/01 12:18:40;;;;;;;24.80;22.27;;;;;;;;;;5022084;28;20452;-76
2020/12/01 12:21:07;;;;;;;23.95;21.38;;;;;;;;;;5036955;28;20517;-75
2020/12/01 12:23:34;;;;;;;25.40;21.83;;;;;;;;;;5019004;28;20171;-76
2020/12/01 12:26:01;;;;;;;28.70;22.20;;;;;;;;;;5002975;28;20441;-77
2020/12/01 12:28:27;;;;;;;26.13;20.33;;;;;;;;;;5018205;28;20950;-76
2020/12/01 12:30:54;;;;;;;28.27;21.80;;;;;;;;;;5018622;28;20385;-76
2020/12/01 12:33:22;;;;;;;27.23;19.83;;;;;;;;;;5018885;28;20749;-77
2020/12/01 12:35:51;;;;;;;26.47;22.87;;;;;;;;;;5018257;28;20217;-76
2020/12/01 12:38:19;;;;;;;28.53;21.37;;;;;;;;;;5035997;28;20436;-76
2020/12/01 12:40:48;;;;;;;28.27;25.20;;;;;;;;;;5037242;28;20405;-76
2020/12/01 12:43:15;;;;;;;26.50;23.63;;;;;;;;;;5019626;28;20497;-76
2020/12/01 12:45:43;;;;;;;26.20;22.70;;;;;;;;;;5018821;28;20496;-76
2020/12/01 12:48:10;;;;;;;35.60;27.17;;;;;;;;;;5018419;28;20877;-77
2020/12/01 12:50:37;;;;;;;27.33;23.95;;;;;;;;;;5036494;28;20185;-76
2020/12/01 12:53:03;;;;;;;29.23;25.42;;;;;;;;;;5037092;28;20258;-76
2020/12/01 12:55:30;;;;;;;29.02;24.20;;;;;;;;;;5036702;28;20587;-77
2020/12/01 12:57:59;;;;;;;26.50;23.00;;;;;;;;;;5002327;28;20199;-75
2020/12/01 13:00:26;;;;;;;26.95;24.00;;;;;;;;;;5002123;28;20422;-77
2020/12/01 13:02:53;;;;;;;30.42;24.42;;;;;;;;;;5003278;28;20183;-77
2020/12/01 13:05:20;;;;;;;30.40;23.00;;;;;;;;;;5002271;28;20214;-77
2020/12/01 13:07:46;;;;;;;35.93;30.87;;;;;;;;;;5018866;28;20274;-77
2020/12/01 13:10:13;;;;;;;28.70;25.55;;;;;;;;;;5018094;28;21008;-76
2020/12/01 13:12:40;;;;;;;27.83;23.45;;;;;;;;;;5036559;28;20175;-77
2020/12/01 13:15:07;;;;;;;33.35;24.20;;;;;;;;;;5018599;28;20175;-75
2020/12/01 13:17:34;;;;;;;29.33;24.13;;;;;;;;;;5018184;28;20203;-76
2020/12/01 13:20:01;;;;;;;29.38;22.23;;;;;;;;;;5019359;28;20717;-76
2020/12/01 13:22:27;;;;;;;24.90;20.60;;;;;;;;;;5019204;28;20225;-76
2020/12/01 13:24:53;;;;;;;25.67;21.80;;;;;;;;;;5036359;28;20601;-76
2020/12/01 13:27:20;;;;;;;27.58;24.63;;;;;;;;;;5036847;28;20523;-76
2020/12/01 13:29:46;;;;;;;28.42;21.60;;;;;;;;;;5035950;28;20167;-77
2020/12/01 13:32:13;;;;;;;30.20;24.85;;;;;;;;;;5034481;28;20167;-77
2020/12/01 13:34:39;;;;;;;24.98;21.83;;;;;;;;;;5036477;28;20202;-76
2020/12/01 13:37:06;;;;;;;30.52;25.10;;;;;;;;;;5035606;28;20274;-76
2020/12/01 13:39:32;;;;;;;29.30;23.20;;;;;;;;;;5035632;28;20186;-75
2020/12/01 13:42:02;;;;;;;33.10;24.13;;;;;;;;;;5045304;22;20584;-77
2020/12/01 13:44:38;;;;;;;;;;;;;;;;;;;;;
2020/12/01 13:47:04;;;;;;;25.90;22.08;;;;;;;;;;4977719;28;20263;-76
2020/12/01 13:49:31;;;;;;;23.10;20.65;;;;;;;;;;4980986;28;20219;-77
2020/12/01 13:51:58;;;;;;;30.90;23.95;;;;;;;;;;4998711;28;20180;-77
2020/12/01 13:54:25;;;;;;;26.92;22.90;;;;;;;;;;4998281;28;20228;-76
2020/12/01 13:56:51;;;;;;;27.35;24.38;;;;;;;;;;4998826;28;20179;-76
2020/12/01 13:59:17;;;;;;;32.15;26.45;;;;;;;;;;4964493;28;20523;-76
2020/12/01 14:01:44;;;;;;;32.55;24.85;;;;;;;;;;4980798;28;20157;-77
2020/12/01 14:04:10;;;;;;;26.48;23.20;;;;;;;;;;4998502;28;20703;-75
2020/12/01 14:06:36;;;;;;;29.88;24.38;;;;;;;;;;4998204;28;20528;-76
2020/12/01 14:09:03;;;;;;;34.30;24.67;;;;;;;;;;4997802;28;20710;-78
2020/12/01 14:11:29;;;;;;;32.10;24.08;;;;;;;;;;4997677;28;20231;-77
2020/12/01 14:13:55;;;;;;;26.20;22.05;;;;;;;;;;4998430;28;20668;-77
2020/12/01 14:23:19;;;;;;;28.60;23.15;;;;;;;;;;4998032;28;20211;-77
2020/12/01 14:43:05;;;;;;;25.48;22.55;;;;;;;;;;5002815;28;20226;-77
2020/12/01 14:45:32;;;;;;;30.70;20.98;;;;;;;;;;4964830;28;20227;-76
2020/12/01 14:48:05;;;;;;;26.25;23.20;;;;;;;;;;4979378;28;20231;-74
2020/12/01 14:50:31;;;;;;;34.55;24.10;;;;;;;;;;4997150;28;20227;-75
2020/12/01 14:53:16;;;;;;;28.63;25.15;;;;;;;;;;4997110;28;20505;-76
2020/12/01 14:55:42;;;;;;;26.15;20.80;;;;;;;;;;4997259;28;20183;-76
2020/12/01 14:58:25;;;;;;;31.63;25.48;;;;;;;;;;4997818;28;20184;-76
2020/12/01 15:01:12;;;;;;;24.08;20.50;;;;;;;;;;4979762;28;20183;-76
2020/12/01 15:03:55;;;;;;;24.50;19.92;;;;;;;;;;4997205;28;20195;-76
2020/12/01 15:06:44;;;;;;;26.85;22.60;;;;;;;;;;4979769;28;20207;-76
2020/12/01 15:09:16;;;;;;;37.70;27.63;;;;;;;;;;4960837;28;20181;-76
2020/12/01 15:12:00;;;;;;;30.23;24.52;;;;;;;;;;4996684;28;20236;-76
2020/12/01 15:14:27;;;;;;;27.45;20.17;;;;;;;;;;4979782;28;20294;-76
2020/12/01 15:17:05;;;;;;;41.00;30.20;;;;;;;;;;4996845;28;20260;-76
2020/12/01 15:19:32;;;;;;;28.20;22.65;;;;;;;;;;4963196;28;20176;-75
2020/12/01 15:22:01;;;;;;;36.65;28.58;;;;;;;;;;4997140;28;20180;-75
2020/12/01 15:24:32;;;;;;;25.40;20.85;;;;;;;;;;4996922;28;20196;-76
2020/12/01 15:26:59;;;;;;;24.63;21.35;;;;;;;;;;4996903;28;20145;-76
2020/12/01 15:29:26;;;;;;;30.33;26.38;;;;;;;;;;4979412;28;20639;-77
2020/12/01 15:31:53;;;;;;;28.77;22.25;;;;;;;;;;4996835;28;20184;-75
2020/12/01 15:34:20;;;;;;;54.00;40.83;;;;;;;;;;4996107;28;20188;-78
2020/12/01 15:36:46;;;;;;;45.30;35.45;;;;;;;;;;4978636;28;20230;-76
2020/12/01 15:39:12;;;;;;;27.88;23.02;;;;;;;;;;4996509;28;20211;-77